ESNL

Lycksele Airport

Sweden
METAR ESNL 251520Z 24008KT 190V270 CAVOK 10/01 Q1009
Observed Flight Rules
Sep-25 @ 15:20 UTC (20 minutes ago) Visual Flight Rules
Wind Visibility Clouds
240° at 8 knots 10,000+ meters
  • Clear skies
Temperatures Readings
Current 10°C / 50°F
Dewpoint 1°C / 34°F
Humidity 54%
Altimeter 29.79" Hg
Pressure 1009 hPa
Elevation 214
METAR ESNL 251520Z 24008KT 190V270 CAVOK 10/01 Q1009
Observed Flight Rules
Sep-25 @ 15:20 UTC
(20 minutes ago)
VFR
Wind Visibility
240° at 8 knots 10,000+ meters
Clouds
  • Clear skies
Temperature Dewpoint
10°C / 50°F 1°C / 34°F
Humidity Altimeter Pressure
54% 29.79" Hg 1009 hPa